createdAt,value
2022-11-16T00:01:08.464Z,94811.88
2022-11-16T00:03:36.587Z,94812.70
2022-11-16T00:06:07.196Z,94817.98
2022-11-16T00:08:38.687Z,94808.04
2022-11-16T00:11:12.020Z,94798.63
2022-11-16T00:13:41.947Z,94797.35
2022-11-16T00:16:18.405Z,94799.56
2022-11-16T00:18:46.447Z,94801.74
2022-11-16T00:21:14.770Z,94799.41
2022-11-16T00:23:42.754Z,94807.90
2022-11-16T00:26:12.976Z,94802.52
2022-11-16T00:28:41.005Z,94798.23
2022-11-16T00:31:09.911Z,94801.20
2022-11-16T00:33:38.852Z,94798.48
2022-11-16T00:36:10.637Z,94798.19
2022-11-16T00:38:39.013Z,94779.98
2022-11-16T00:41:08.322Z,94771.28
2022-11-16T00:43:37.283Z,94777.02
2022-11-16T00:46:06.225Z,94771.67
2022-11-16T00:48:34.701Z,94755.94
2022-11-16T00:51:03.715Z,94746.08
2022-11-16T00:53:32.306Z,94751.75
2022-11-16T00:56:00.593Z,94765.57
2022-11-16T00:58:30.576Z,94773.06
2022-11-16T01:01:06.526Z,94775.20
2022-11-16T01:03:36.306Z,94766.05
2022-11-16T01:06:07.171Z,94761.13
2022-11-16T01:08:37.218Z,94756.63
2022-11-16T01:11:25.028Z,94758.45
2022-11-16T01:13:53.726Z,94764.15
2022-11-16T01:16:23.223Z,94750.92
2022-11-16T01:18:53.354Z,94754.70
2022-11-16T01:21:23.173Z,94758.84
2022-11-16T01:23:51.942Z,94751.09
2022-11-16T01:26:20.201Z,94739.42
2022-11-16T01:28:48.718Z,94743.94
2022-11-16T01:31:16.744Z,94744.54
2022-11-16T01:33:44.867Z,94751.04
2022-11-16T01:36:21.584Z,94757.13
2022-11-16T01:38:50.781Z,94750.55
2022-11-16T01:41:24.040Z,94747.42
2022-11-16T01:44:02.441Z,94734.20
2022-11-16T01:46:46.475Z,94722.64
2022-11-16T01:49:20.804Z,94713.72
2022-11-16T01:51:55.471Z,94704.10
2022-11-16T01:54:24.642Z,94701.69
2022-11-16T01:57:00.521Z,94701.91
2022-11-16T01:59:40.273Z,94711.81
2022-11-16T02:02:13.255Z,94712.20
2022-11-16T02:04:42.271Z,94709.09
2022-11-16T02:07:27.167Z,94702.20
2022-11-16T02:10:03.096Z,94702.98
2022-11-16T02:12:56.671Z,94699.38
2022-11-16T02:15:55.928Z,94687.33
2022-11-16T02:19:11.707Z,94680.46
2022-11-16T02:21:51.573Z,94680.23
2022-11-16T02:24:43.805Z,94680.03
2022-11-16T02:27:53.752Z,94676.41
2022-11-16T02:30:24.200Z,94677.11
2022-11-16T02:33:01.819Z,94670.68
2022-11-16T02:35:39.001Z,94667.17
2022-11-16T02:38:15.573Z,94665.02
2022-11-16T02:40:48.427Z,94662.16
2022-11-16T02:43:26.560Z,94656.86
2022-11-16T02:45:59.645Z,94652.92
2022-11-16T02:48:34.519Z,94648.13
2022-11-16T02:51:06.591Z,94647.89
2022-11-16T02:53:51.454Z,94646.51
2022-11-16T02:56:20.965Z,94642.44
2022-11-16T02:58:49.662Z,94641.23
2022-11-16T03:01:27.644Z,94640.59
2022-11-16T03:04:06.122Z,94639.20
2022-11-16T03:06:39.518Z,94632.44
2022-11-16T03:09:16.515Z,94624.91
2022-11-16T03:12:00.162Z,94619.08
2022-11-16T03:14:40.619Z,94613.34
2022-11-16T03:17:16.696Z,94613.71
2022-11-16T03:19:51.940Z,94615.30
2022-11-16T03:22:38.857Z,94615.10
2022-11-16T03:25:08.893Z,94609.53
2022-11-16T03:27:46.073Z,94617.95
2022-11-16T03:30:23.819Z,94614.20
2022-11-16T03:33:06.711Z,94616.35
2022-11-16T03:35:44.251Z,94612.21
2022-11-16T03:38:15.508Z,94608.12
2022-11-16T03:40:47.627Z,94600.73
2022-11-16T03:43:18.798Z,94599.59
2022-11-16T03:45:47.487Z,94593.40
2022-11-16T03:48:15.571Z,94585.14
2022-11-16T03:50:44.175Z,94578.61
2022-11-16T03:53:12.423Z,94579.18
2022-11-16T03:55:42.572Z,94576.66
2022-11-16T03:58:14.024Z,94575.66
2022-11-16T04:00:42.090Z,94577.28
2022-11-16T04:03:11.025Z,94576.13
2022-11-16T04:05:58.356Z,94568.87
2022-11-16T04:08:45.382Z,94567.14
2022-11-16T04:11:35.682Z,94567.70
2022-11-16T04:14:23.425Z,94563.29
2022-11-16T04:17:10.449Z,94563.89
2022-11-16T04:19:58.355Z,94559.13
2022-11-16T04:23:12.544Z,94562.21
2022-11-16T04:25:43.830Z,94550.00
2022-11-16T04:28:24.088Z,94551.89
2022-11-16T04:31:17.552Z,94551.68
2022-11-16T04:34:24.559Z,94546.33
2022-11-16T04:37:13.083Z,94540.86
2022-11-16T04:39:41.488Z,94539.58
2022-11-16T04:42:20.005Z,94537.58
2022-11-16T04:45:09.700Z,94544.17
2022-11-16T04:47:43.991Z,94546.50
2022-11-16T04:50:12.342Z,94538.45
2022-11-16T04:52:41.309Z,94530.45
2022-11-16T04:55:12.872Z,94528.13
2022-11-16T04:57:41.259Z,94529.52
2022-11-16T05:00:10.468Z,94529.27
2022-11-16T05:02:38.955Z,94524.89
2022-11-16T05:05:08.067Z,94531.73
2022-11-16T05:07:37.482Z,94530.35
2022-11-16T05:10:12.509Z,94531.11
2022-11-16T05:12:40.888Z,94528.42
2022-11-16T05:15:10.352Z,94529.33
2022-11-16T05:17:38.409Z,94521.33
2022-11-16T05:20:29.592Z,94518.55
2022-11-16T05:23:01.738Z,94517.45
2022-11-16T05:25:36.511Z,94519.90
2022-11-16T05:28:07.248Z,94516.08
2022-11-16T05:30:38.387Z,94515.90
2022-11-16T05:33:06.779Z,94509.38
2022-11-16T05:35:38.763Z,94504.05
2022-11-16T05:38:07.412Z,94511.02
2022-11-16T05:40:39.114Z,94516.49
2022-11-16T05:43:07.982Z,94520.77
2022-11-16T05:45:40.070Z,94520.34
2022-11-16T05:48:08.737Z,94519.80
2022-11-16T05:50:42.368Z,94518.35
2022-11-16T05:53:15.745Z,94516.23
2022-11-16T05:55:43.967Z,94516.72
2022-11-16T05:58:12.466Z,94523.02
2022-11-16T06:00:41.062Z,94527.44
2022-11-16T06:03:10.396Z,94524.69
2022-11-16T06:05:40.675Z,94523.64
2022-11-16T06:08:10.365Z,94519.96
2022-11-16T06:10:38.816Z,94517.63
2022-11-16T06:13:07.285Z,94513.11
2022-11-16T06:15:40.128Z,94511.11
2022-11-16T06:18:09.121Z,94511.13
2022-11-16T06:20:39.698Z,94508.59
2022-11-16T06:23:07.994Z,94504.08
2022-11-16T06:25:39.132Z,94503.59
2022-11-16T06:28:08.278Z,94502.17
2022-11-16T06:30:39.639Z,94502.29
2022-11-16T06:33:07.887Z,94500.63
2022-11-16T06:35:36.333Z,94511.88
2022-11-16T06:38:05.633Z,94509.46
2022-11-16T06:40:34.263Z,94500.21
2022-11-16T06:43:03.005Z,94503.10
2022-11-16T06:45:31.188Z,94495.67
2022-11-16T06:48:00.795Z,94493.67
2022-11-16T06:50:29.344Z,94491.22
2022-11-16T06:53:00.928Z,94487.16
2022-11-16T06:55:29.948Z,94484.71
2022-11-16T06:57:58.408Z,94477.36
2022-11-16T07:00:28.116Z,94479.36
2022-11-16T07:02:57.212Z,94473.99
2022-11-16T07:05:25.685Z,94472.18
2022-11-16T07:07:55.729Z,94468.54
2022-11-16T07:10:25.431Z,94464.12
2022-11-16T07:12:53.810Z,94463.83
2022-11-16T07:15:22.610Z,94465.63
2022-11-16T07:17:50.757Z,94466.16
2022-11-16T07:20:19.609Z,94466.01
2022-11-16T07:22:48.416Z,94462.23
2022-11-16T07:25:17.224Z,94458.41
2022-11-16T07:27:45.976Z,94457.03
2022-11-16T07:30:14.706Z,94454.76
2022-11-16T07:33:02.138Z,94456.99
2022-11-16T07:36:04.742Z,94460.30
2022-11-16T07:38:34.619Z,94466.30
2022-11-16T07:41:13.047Z,94463.46
2022-11-16T07:43:52.794Z,94449.59
2022-11-16T07:46:46.182Z,94442.59
2022-11-16T07:49:18.449Z,94434.77
2022-11-16T07:51:58.574Z,94431.79
2022-11-16T07:54:47.366Z,94436.89
2022-11-16T07:57:15.741Z,94430.90
2022-11-16T07:59:43.973Z,94430.86
2022-11-16T08:02:13.332Z,94435.30
2022-11-16T08:04:42.828Z,94435.04
2022-11-16T08:07:11.712Z,94439.98
2022-11-16T08:09:50.151Z,94433.73
2022-11-16T08:12:18.521Z,94433.39
2022-11-16T08:14:48.128Z,94433.56
2022-11-16T08:17:16.414Z,94430.49
2022-11-16T08:19:45.299Z,94425.52
2022-11-16T08:22:15.459Z,94425.39
2022-11-16T08:24:43.713Z,94425.60
2022-11-16T08:27:15.668Z,94427.42
2022-11-16T08:29:44.647Z,94424.56
2022-11-16T08:32:13.929Z,94424.05
2022-11-16T08:34:42.391Z,94427.10
2022-11-16T08:37:11.060Z,94428.05
2022-11-16T08:39:43.045Z,94422.92
2022-11-16T08:42:11.596Z,94420.00
2022-11-16T08:44:40.360Z,94416.47
2022-11-16T08:47:12.437Z,94417.23
2022-11-16T08:49:49.577Z,94421.26
2022-11-16T08:52:18.708Z,94419.41
2022-11-16T08:54:47.408Z,94414.73
2022-11-16T08:57:16.223Z,94427.55
2022-11-16T08:59:45.131Z,94419.23
2022-11-16T09:02:14.647Z,94406.30
2022-11-16T09:04:43.975Z,94402.30
2022-11-16T09:07:12.342Z,94415.48
2022-11-16T09:09:40.407Z,94421.14
2022-11-16T09:12:08.724Z,94419.79
2022-11-16T09:14:37.097Z,94422.61
2022-11-16T09:17:05.139Z,94422.34
2022-11-16T09:19:33.372Z,94411.26
2022-11-16T09:22:02.137Z,94408.52
2022-11-16T09:24:30.391Z,94413.92
2022-11-16T09:27:01.607Z,94413.57
2022-11-16T09:29:30.191Z,94406.98
2022-11-16T09:31:58.694Z,94397.55
2022-11-16T09:34:26.822Z,94392.77
2022-11-16T09:36:55.386Z,94397.50
2022-11-16T09:39:30.937Z,94388.95
2022-11-16T09:42:20.305Z,94387.64
2022-11-16T09:45:27.489Z,94384.55
2022-11-16T09:47:59.571Z,94380.03
2022-11-16T09:50:33.692Z,94366.48
2022-11-16T09:53:30.614Z,94355.80
2022-11-16T09:56:01.657Z,94353.01
2022-11-16T09:58:48.185Z,94351.77
2022-11-16T10:01:48.028Z,94348.94
2022-11-16T10:04:56.691Z,94337.08
2022-11-16T10:07:44.383Z,94331.05
2022-11-16T10:10:15.175Z,94334.14
2022-11-16T10:13:16.569Z,94330.48
2022-11-16T10:15:56.789Z,94331.92
2022-11-16T10:18:43.230Z,94331.96
2022-11-16T10:21:31.406Z,94329.90
2022-11-16T10:24:21.129Z,94326.30
2022-11-16T10:27:10.822Z,94323.16
2022-11-16T10:30:06.977Z,94319.67
2022-11-16T10:32:41.406Z,94320.62
2022-11-16T10:35:12.386Z,94317.64
2022-11-16T10:37:52.022Z,94315.64
2022-11-16T10:40:25.100Z,94319.10
2022-11-16T10:43:15.479Z,94314.20
2022-11-16T10:45:52.192Z,94310.69
2022-11-16T10:48:46.966Z,94297.67
2022-11-16T10:51:15.463Z,94299.92
2022-11-16T10:53:44.562Z,94298.36
2022-11-16T10:56:20.001Z,94290.61
2022-11-16T10:58:58.518Z,94289.77
2022-11-16T11:01:58.855Z,94286.05
2022-11-16T11:04:31.529Z,94284.06
2022-11-16T11:07:01.295Z,94282.30
2022-11-16T11:09:32.825Z,94288.30
2022-11-16T11:12:34.379Z,94282.91
2022-11-16T11:15:06.313Z,94283.08
2022-11-16T11:17:36.579Z,94280.70
2022-11-16T11:20:18.418Z,94278.75
2022-11-16T11:22:58.186Z,94283.34
2022-11-16T11:25:29.322Z,94275.92
2022-11-16T11:28:16.963Z,94269.86
2022-11-16T11:30:59.410Z,94264.30
2022-11-16T11:33:33.887Z,94256.89
2022-11-16T11:36:06.591Z,94251.14
2022-11-16T11:38:54.630Z,94251.42
2022-11-16T11:41:24.008Z,94252.25
2022-11-16T11:44:06.639Z,94256.77
2022-11-16T11:47:18.277Z,94259.77
2022-11-16T11:49:34.063Z,94256.71
2022-11-16T11:52:21.533Z,94245.98
2022-11-16T11:54:52.944Z,94245.39
2022-11-16T11:57:23.382Z,94243.41
2022-11-16T11:59:54.488Z,94244.15
2022-11-16T12:03:22.811Z,94242.21
2022-11-16T12:06:02.376Z,94240.63
2022-11-16T12:08:49.390Z,94240.30
2022-11-16T12:11:23.253Z,94238.98
2022-11-16T12:14:16.496Z,94239.73
2022-11-16T12:17:31.337Z,94233.77
2022-11-16T12:20:11.811Z,94230.48
2022-11-16T12:23:11.163Z,94231.31
2022-11-16T12:25:57.737Z,94228.65
2022-11-16T12:28:51.016Z,94223.34
2022-11-16T12:31:41.236Z,94218.60
2022-11-16T12:34:32.287Z,94223.41
2022-11-16T12:37:03.076Z,94218.09
2022-11-16T12:39:31.168Z,94215.27
2022-11-16T12:42:40.619Z,94214.23
2022-11-16T12:45:31.970Z,94211.20
2022-11-16T12:48:38.243Z,94214.17
2022-11-16T12:51:31.586Z,94216.79
2022-11-16T12:54:27.414Z,94212.54
2022-11-16T12:57:15.364Z,94208.41
2022-11-16T13:00:17.080Z,94208.00
2022-11-16T13:03:39.608Z,94207.55
2022-11-16T13:06:13.568Z,94212.02
2022-11-16T13:09:01.916Z,94208.72
2022-11-16T13:11:40.430Z,94204.64
2022-11-16T13:14:17.217Z,94208.89
2022-11-16T13:16:46.975Z,94212.16
2022-11-16T13:19:17.355Z,94207.89
2022-11-16T13:22:07.344Z,94206.62
2022-11-16T13:24:58.821Z,94206.67
2022-11-16T13:27:35.130Z,94203.75
2022-11-16T13:30:16.599Z,94203.83
2022-11-16T13:33:00.975Z,94199.36
2022-11-16T13:35:29.863Z,94202.33
2022-11-16T13:37:57.943Z,94197.33
2022-11-16T13:40:29.494Z,94188.48
2022-11-16T13:43:11.517Z,94189.48
2022-11-16T13:45:53.942Z,94188.91
2022-11-16T13:48:34.502Z,94190.38
2022-11-16T13:51:09.392Z,94180.93
2022-11-16T13:57:02.791Z,94183.00
2022-11-16T13:59:34.716Z,94183.40
2022-11-16T14:02:25.774Z,94178.05
2022-11-16T14:04:56.102Z,94174.38
2022-11-16T14:07:28.961Z,94169.00
2022-11-16T14:09:57.629Z,94171.04
2022-11-16T14:12:38.038Z,94171.24
2022-11-16T14:15:24.364Z,94169.46
2022-11-16T14:17:57.257Z,94168.76
2022-11-16T14:20:39.733Z,94163.52
2022-11-16T14:23:24.191Z,94166.02
2022-11-16T14:26:10.611Z,94167.48
2022-11-16T14:28:44.926Z,94162.91
2022-11-16T14:31:12.994Z,94159.50
2022-11-16T14:33:41.490Z,94160.29
2022-11-16T14:36:10.893Z,94158.08
2022-11-16T14:38:42.133Z,94156.41
2022-11-16T14:41:21.369Z,94156.45
2022-11-16T14:43:54.589Z,94156.82
2022-11-16T14:46:27.072Z,94152.82
2022-11-16T14:48:57.369Z,94148.41
2022-11-16T14:51:37.231Z,94146.84
2022-11-16T14:54:14.828Z,94150.05
2022-11-16T14:57:00.725Z,94148.48
2022-11-16T14:59:30.727Z,94146.98
2022-11-16T15:02:04.360Z,94143.85
2022-11-16T15:04:33.037Z,94141.35
2022-11-16T15:07:05.315Z,94138.48
2022-11-16T15:09:39.535Z,94139.60
2022-11-16T15:12:34.753Z,94133.70
2022-11-16T15:15:30.073Z,94132.45
2022-11-16T15:18:01.006Z,94132.28
2022-11-16T15:20:32.056Z,94129.70
2022-11-16T15:23:01.992Z,94131.39
2022-11-16T15:25:53.044Z,94132.11
2022-11-16T15:28:28.064Z,94129.66
2022-11-16T15:30:59.182Z,94130.57
2022-11-16T15:33:30.469Z,94129.98
2022-11-16T15:35:59.242Z,94129.95
2022-11-16T15:38:27.176Z,94128.08
2022-11-16T15:40:58.655Z,94126.22
2022-11-16T15:43:31.557Z,94126.27
2022-11-16T15:46:01.493Z,94124.64
2022-11-16T15:48:30.462Z,94127.89
2022-11-16T15:51:15.357Z,94123.64
2022-11-16T15:53:45.925Z,94119.28
2022-11-16T15:56:16.804Z,94119.13
2022-11-16T15:58:46.377Z,94121.73
2022-11-16T16:01:15.662Z,94120.50
2022-11-16T16:04:05.743Z,94121.38
2022-11-16T16:06:55.637Z,94116.66
2022-11-16T16:09:36.917Z,94110.33
2022-11-16T16:12:21.009Z,94105.03
2022-11-16T16:14:51.360Z,94097.58
2022-11-16T16:17:25.701Z,94095.38
2022-11-16T16:20:02.890Z,94089.19
2022-11-16T16:22:34.991Z,94088.61
2022-11-16T16:25:07.299Z,94091.95
2022-11-16T16:27:41.465Z,94089.16
2022-11-16T16:30:14.688Z,94088.98
2022-11-16T16:32:42.646Z,94089.45
2022-11-16T16:35:17.951Z,94093.88
2022-11-16T16:37:50.069Z,94093.83
2022-11-16T16:40:19.046Z,94086.52
2022-11-16T16:42:51.036Z,94084.80
2022-11-16T16:45:24.520Z,94083.66
2022-11-16T16:47:52.702Z,94081.39
2022-11-16T16:50:20.990Z,94081.13
2022-11-16T16:52:49.475Z,94079.08
2022-11-16T16:55:17.454Z,94077.59
2022-11-16T16:57:45.761Z,94076.28
2022-11-16T17:00:14.382Z,94070.35
2022-11-16T17:02:42.391Z,94069.00
2022-11-16T17:05:10.440Z,94071.96
2022-11-16T17:07:38.613Z,94070.58
2022-11-16T17:10:06.952Z,94070.01
2022-11-16T17:12:35.233Z,94068.40
2022-11-16T17:15:03.663Z,94062.91
2022-11-16T17:17:31.700Z,94061.30
2022-11-16T17:20:00.039Z,94062.72
2022-11-16T17:22:28.144Z,94061.72
2022-11-16T17:24:56.356Z,94063.65
2022-11-16T17:27:24.641Z,94065.27
2022-11-16T17:29:52.689Z,94070.64
2022-11-16T17:32:20.690Z,94068.45
2022-11-16T17:34:48.768Z,94058.27
2022-11-16T17:37:16.849Z,94054.20
2022-11-16T17:39:44.883Z,94055.59
2022-11-16T17:42:13.171Z,94051.66
2022-11-16T17:44:41.288Z,94054.52
2022-11-16T17:47:09.273Z,94055.40
2022-11-16T17:49:37.424Z,94052.59
2022-11-16T17:52:06.439Z,94050.55
2022-11-16T17:54:34.518Z,94050.64
2022-11-16T17:57:02.696Z,94050.83
2022-11-16T17:59:30.981Z,94042.75
2022-11-16T18:01:59.061Z,94037.39
2022-11-16T18:04:27.129Z,94033.08
2022-11-16T18:06:56.209Z,94031.78
2022-11-16T18:09:24.521Z,94032.63
2022-11-16T18:11:52.602Z,94032.43
2022-11-16T18:14:20.784Z,94030.40
2022-11-16T18:16:48.971Z,94029.07
2022-11-16T18:19:18.699Z,94031.09
2022-11-16T18:21:46.972Z,94032.54
2022-11-16T18:24:15.472Z,94026.24
2022-11-16T18:26:43.931Z,94023.14
2022-11-16T18:29:15.528Z,94024.55
2022-11-16T18:31:43.732Z,94024.42
2022-11-16T18:34:14.555Z,94022.96
2022-11-16T18:36:42.653Z,94025.21
2022-11-16T18:39:10.849Z,94019.89
2022-11-16T18:41:46.550Z,94016.11
2022-11-16T18:44:18.196Z,94017.16
2022-11-16T18:46:46.276Z,94017.35
2022-11-16T18:49:15.385Z,94013.14
2022-11-16T18:51:43.461Z,94004.27
2022-11-16T18:54:11.539Z,94002.41
2022-11-16T18:56:39.464Z,94003.29
2022-11-16T18:59:07.456Z,94002.23
2022-11-16T19:01:35.523Z,94009.92
2022-11-16T19:04:03.792Z,94007.99
2022-11-16T19:06:32.164Z,94007.83
2022-11-16T19:09:00.353Z,94008.20
2022-11-16T19:11:29.128Z,94006.63
2022-11-16T19:14:07.851Z,94008.66
2022-11-16T19:16:36.300Z,94002.25
2022-11-16T19:19:04.520Z,93996.52
2022-11-16T19:21:32.570Z,93994.58
2022-11-16T19:24:00.565Z,93995.56
2022-11-16T19:26:28.665Z,93994.98
2022-11-16T19:28:56.671Z,93996.01
2022-11-16T19:31:27.345Z,93991.27
2022-11-16T19:34:07.892Z,93991.06
2022-11-16T19:36:37.270Z,93994.63
2022-11-16T19:39:06.109Z,93991.11
2022-11-16T19:41:34.348Z,93989.13
2022-11-16T19:44:02.642Z,93985.21
2022-11-16T19:46:32.792Z,93984.72
2022-11-16T19:49:01.221Z,93979.83
2022-11-16T19:51:32.191Z,93975.80
2022-11-16T19:54:02.532Z,93975.94
2022-11-16T19:56:31.230Z,93971.82
2022-11-16T19:58:59.274Z,93966.42
2022-11-16T20:01:29.598Z,93968.46
2022-11-16T20:04:00.764Z,93967.55
2022-11-16T20:06:37.773Z,93962.73
2022-11-16T20:09:09.254Z,93961.80
2022-11-16T20:11:39.977Z,93962.70
2022-11-16T20:14:11.649Z,93962.39
2022-11-16T20:16:41.256Z,93961.02
2022-11-16T20:19:10.474Z,93960.70
2022-11-16T20:21:40.675Z,93954.88
2022-11-16T20:24:14.047Z,93948.73
2022-11-16T20:26:45.023Z,93945.52
2022-11-16T20:29:14.600Z,93946.14
2022-11-16T20:31:45.320Z,93939.83
2022-11-16T20:34:16.609Z,93935.40
2022-11-16T20:36:46.540Z,93928.85
2022-11-16T20:39:16.794Z,93922.13
2022-11-16T20:41:45.386Z,93922.27
2022-11-16T20:44:21.197Z,93923.40
2022-11-16T20:46:52.236Z,93924.64
2022-11-16T20:49:20.512Z,93921.83
2022-11-16T20:51:49.708Z,93917.85
2022-11-16T20:54:17.794Z,93914.87
2022-11-16T20:56:48.329Z,93912.27
2022-11-16T20:59:16.747Z,93908.98
2022-11-16T21:01:47.965Z,93905.60
2022-11-16T21:04:16.507Z,93905.76
2022-11-16T21:06:44.652Z,93905.13
2022-11-16T21:09:15.725Z,93904.48
2022-11-16T21:12:02.622Z,93901.66
2022-11-16T21:14:30.697Z,93897.86
2022-11-16T21:16:58.983Z,93885.42
2022-11-16T21:19:27.063Z,93884.41
2022-11-16T21:21:55.118Z,93888.23
2022-11-16T21:24:24.833Z,93887.92
2022-11-16T21:26:53.557Z,93892.66
2022-11-16T21:29:26.063Z,93889.83
2022-11-16T21:31:54.100Z,93882.58
2022-11-16T21:34:24.459Z,93877.42
2022-11-16T21:36:52.635Z,93883.92
2022-11-16T21:39:20.615Z,93880.01
2022-11-16T21:41:48.697Z,93876.86
2022-11-16T21:44:16.673Z,93877.61
2022-11-16T21:46:44.849Z,93881.23
2022-11-16T21:49:12.834Z,93879.23
2022-11-16T21:51:40.912Z,93875.00
2022-11-16T21:54:08.886Z,93869.53
2022-11-16T21:56:36.843Z,93867.61
2022-11-16T21:59:05.617Z,93867.19
2022-11-16T22:01:53.825Z,93867.16
2022-11-16T22:04:40.842Z,93861.49
2022-11-16T22:07:32.941Z,93865.78
2022-11-16T22:10:02.613Z,93860.66
2022-11-16T22:12:30.796Z,93858.48
2022-11-16T22:14:59.004Z,93860.30
2022-11-16T22:17:27.451Z,93863.84
2022-11-16T22:19:55.756Z,93862.61
2022-11-16T22:22:24.571Z,93859.09
2022-11-16T22:24:52.537Z,93853.38
2022-11-16T22:27:21.132Z,93846.55
2022-11-16T22:29:49.347Z,93844.39
2022-11-16T22:32:17.336Z,93845.53
2022-11-16T22:34:45.314Z,93844.16
2022-11-16T22:37:13.360Z,93848.88
2022-11-16T22:39:41.448Z,93848.43
2022-11-16T22:42:09.724Z,93849.89
2022-11-16T22:44:37.800Z,93842.52
2022-11-16T22:47:05.881Z,93835.98
2022-11-16T22:49:33.961Z,93838.70
2022-11-16T22:52:02.171Z,93835.27
2022-11-16T22:54:31.149Z,93836.56
2022-11-16T22:57:00.809Z,93834.07
2022-11-16T22:59:29.664Z,93824.59
2022-11-16T23:01:57.744Z,93817.61
2022-11-16T23:04:26.032Z,93820.48
2022-11-16T23:06:54.224Z,93824.55
2022-11-16T23:09:22.199Z,93823.82
2022-11-16T23:12:08.911Z,93821.27
2022-11-16T23:14:57.249Z,93822.83
2022-11-16T23:17:25.352Z,93818.90
2022-11-16T23:20:17.289Z,93811.05
2022-11-16T23:23:04.316Z,93808.77
2022-11-16T23:25:51.754Z,93808.70
2022-11-16T23:28:20.346Z,93807.09
2022-11-16T23:30:48.408Z,93805.73
2022-11-16T23:33:16.713Z,93803.65
2022-11-16T23:35:44.828Z,93792.84
2022-11-16T23:38:12.879Z,93789.36
2022-11-16T23:40:40.852Z,93792.48
2022-11-16T23:43:29.610Z,93789.67
2022-11-16T23:45:57.603Z,93786.02
2022-11-16T23:48:25.680Z,93787.48
2022-11-16T23:50:53.763Z,93786.55
2022-11-16T23:53:21.735Z,93784.20
2022-11-16T23:55:49.718Z,93779.10
2022-11-16T23:58:17.694Z,93767.16
